createdAt,value
2023-05-11T00:00:44.487Z,-11213.91
2023-05-11T00:03:50.819Z,-11217.00
2023-05-11T00:06:57.466Z,-11214.75
2023-05-11T00:10:03.612Z,-11201.13
2023-05-11T00:13:11.158Z,-11192.97
2023-05-11T00:16:17.127Z,-11201.81
2023-05-11T00:19:23.417Z,-11207.16
2023-05-11T00:22:30.046Z,-11211.81
2023-05-11T00:25:36.149Z,-11216.59
2023-05-11T00:28:43.262Z,-11212.50
2023-05-11T00:31:50.312Z,-11213.06
2023-05-11T00:34:56.268Z,-11215.19
2023-05-11T00:38:02.362Z,-11213.78
2023-05-11T00:41:08.873Z,-11200.00
2023-05-11T00:44:16.539Z,-11200.56
2023-05-11T00:47:22.752Z,-11203.38
2023-05-11T00:50:29.389Z,-11208.84
2023-05-11T00:53:35.496Z,-11210.25
2023-05-11T00:56:41.949Z,-11199.16
2023-05-11T00:59:50.688Z,-11192.53
2023-05-11T01:02:59.129Z,-11202.38
2023-05-11T01:06:11.788Z,-11202.25
2023-05-11T01:09:33.532Z,-11210.25
2023-05-11T01:12:49.312Z,-11208.00
2023-05-11T01:15:57.430Z,-11201.25
2023-05-11T01:19:12.494Z,-11203.78
2023-05-11T01:22:32.444Z,-11195.63
2023-05-11T01:26:03.868Z,-11209.69
2023-05-11T01:29:29.938Z,-11208.84
2023-05-11T01:32:41.645Z,-11194.78
2023-05-11T01:35:55.094Z,-11197.47
2023-05-11T01:39:04.762Z,-11199.72
2023-05-11T01:42:11.682Z,-11196.47
2023-05-11T01:45:20.194Z,-11205.47
2023-05-11T01:48:32.127Z,-11201.25
2023-05-11T01:51:39.940Z,-11203.09
2023-05-11T01:54:48.771Z,-11188.75
2023-05-11T01:57:57.221Z,-11196.06
2023-05-11T02:01:04.713Z,-11185.78
2023-05-11T02:04:14.550Z,-11192.97
2023-05-11T02:07:22.095Z,-11205.19
2023-05-11T02:10:29.256Z,-11193.25
2023-05-11T02:13:37.713Z,-11195.06
2023-05-11T02:16:45.950Z,-11198.16
2023-05-11T02:19:54.959Z,-11187.47
2023-05-11T02:23:02.303Z,-11197.88
2023-05-11T02:26:09.843Z,-11197.03
2023-05-11T02:29:16.109Z,-11204.34
2023-05-11T02:32:25.893Z,-11210.53
2023-05-11T02:35:37.202Z,-11211.94
2023-05-11T02:38:45.203Z,-11201.53
2023-05-11T02:41:57.655Z,-11211.94
2023-05-11T02:45:09.105Z,-11219.25
2023-05-11T02:48:26.611Z,-11220.09
2023-05-11T02:51:37.795Z,-11202.94
2023-05-11T02:54:44.523Z,-11204.91
2023-05-11T02:57:50.997Z,-11214.75
2023-05-11T03:00:57.622Z,-11212.66
2023-05-11T03:04:05.867Z,-11215.59
2023-05-11T03:07:13.585Z,-11200.28
2023-05-11T03:10:20.100Z,-11204.34
2023-05-11T03:13:27.242Z,-11202.81
2023-05-11T03:16:34.618Z,-11186.63
2023-05-11T03:19:42.760Z,-11199.00
2023-05-11T03:22:51.270Z,-11203.22
2023-05-11T03:25:58.920Z,-11211.09
2023-05-11T03:29:05.856Z,-11210.13
2023-05-11T03:32:12.057Z,-11210.41
2023-05-11T03:35:18.852Z,-11200.41
2023-05-11T03:38:30.894Z,-11190.56
2023-05-11T03:41:40.534Z,-11202.66
2023-05-11T03:44:49.626Z,-11206.03
2023-05-11T03:47:57.704Z,-11208.00
2023-05-11T03:51:05.915Z,-11198.16
2023-05-11T03:54:14.360Z,-11203.78
2023-05-11T03:57:20.178Z,-11214.63
2023-05-11T04:00:26.104Z,-11211.38
2023-05-11T04:03:32.122Z,-11209.69
2023-05-11T04:06:38.191Z,-11213.06
2023-05-11T04:09:45.547Z,-11208.56
2023-05-11T04:12:53.094Z,-11200.69
2023-05-11T04:15:59.480Z,-11207.31
2023-05-11T04:19:06.534Z,-11208.00
2023-05-11T04:22:13.307Z,-11207.44
2023-05-11T04:25:21.110Z,-11217.44
2023-05-11T04:28:28.098Z,-11215.19
2023-05-11T04:31:34.936Z,-11210.13
2023-05-11T04:34:42.846Z,-11202.81
2023-05-11T04:37:48.824Z,-11204.34
2023-05-11T04:40:56.106Z,-11214.34
2023-05-11T04:44:02.253Z,-11209.13
2023-05-11T04:47:08.440Z,-11219.69
2023-05-11T04:50:14.945Z,-11221.94
2023-05-11T04:53:20.912Z,-11222.34
2023-05-11T04:56:28.279Z,-11226.84
2023-05-11T04:59:34.767Z,-11225.31
2023-05-11T05:02:41.032Z,-11223.47
2023-05-11T05:05:47.135Z,-11223.47
2023-05-11T05:08:53.219Z,-11226.44
2023-05-11T05:12:01.725Z,-11228.69
2023-05-11T05:15:09.288Z,-11231.34
2023-05-11T05:18:15.213Z,-11240.91
2023-05-11T05:21:21.325Z,-11230.22
2023-05-11T05:24:27.393Z,-11243.59
2023-05-11T05:27:35.234Z,-11237.69
2023-05-11T05:30:41.606Z,-11237.69
2023-05-11T05:33:47.504Z,-11240.06
2023-05-11T05:36:53.780Z,-11245.28
2023-05-11T05:40:00.270Z,-11240.63
2023-05-11T05:43:07.664Z,-11243.31
2023-05-11T05:46:14.165Z,-11244.31
2023-05-11T05:49:20.166Z,-11237.84
2023-05-11T05:52:26.542Z,-11242.31
2023-05-11T05:55:32.515Z,-11243.75
2023-05-11T05:58:39.796Z,-11242.59
2023-05-11T06:01:47.574Z,-11237.97
2023-05-11T06:04:53.896Z,-11230.78
2023-05-11T06:08:09.665Z,-11238.09
2023-05-11T06:11:17.332Z,-11230.50
2023-05-11T06:14:25.046Z,-11244.03
2023-05-11T06:17:31.628Z,-11246.00
2023-05-11T06:20:37.651Z,-11250.91
2023-05-11T06:23:44.315Z,-11247.97
2023-05-11T06:26:50.205Z,-11237.28
2023-05-11T06:29:57.696Z,-11251.63
2023-05-11T06:33:03.739Z,-11254.00
2023-05-11T06:36:10.199Z,-11253.03
2023-05-11T06:39:16.366Z,-11252.75
2023-05-11T06:42:23.687Z,-11244.03
2023-05-11T06:45:31.161Z,-11256.97
2023-05-11T06:48:37.322Z,-11248.53
2023-05-11T06:51:43.548Z,-11256.13
2023-05-11T06:54:49.486Z,-11250.78
2023-05-11T06:57:55.814Z,-11256.41
2023-05-11T07:01:05.924Z,-11258.38
2023-05-11T07:04:12.087Z,-11261.47
2023-05-11T07:07:18.363Z,-11263.16
2023-05-11T07:10:24.628Z,-11255.13
2023-05-11T07:13:31.025Z,-11267.09
2023-05-11T07:16:38.824Z,-11272.44
2023-05-11T07:19:45.473Z,-11271.59
2023-05-11T07:22:51.877Z,-11260.06
2023-05-11T07:25:58.293Z,-11271.47
2023-05-11T07:29:04.422Z,-11279.19
2023-05-11T07:32:11.865Z,-11276.66
2023-05-11T07:35:18.397Z,-11303.69
2023-05-11T07:38:24.398Z,-11298.06
2023-05-11T07:41:30.996Z,-11304.81
2023-05-11T07:44:37.155Z,-11290.59
2023-05-11T07:47:45.285Z,-11281.72
2023-05-11T07:50:51.565Z,-11272.44
2023-05-11T07:53:57.842Z,-11287.22
2023-05-11T07:57:05.162Z,-11280.19
2023-05-11T08:00:12.607Z,-11285.41
2023-05-11T08:03:20.423Z,-11290.19
2023-05-11T08:06:26.679Z,-11303.28
2023-05-11T08:09:33.027Z,-11287.06
2023-05-11T08:12:39.757Z,-11277.09
2023-05-11T08:15:45.729Z,-11287.91
2023-05-11T08:18:53.387Z,-11274.69
2023-05-11T08:21:59.787Z,-11292.00
2023-05-11T08:25:06.492Z,-11260.06
2023-05-11T08:28:12.666Z,-11266.81
2023-05-11T08:31:18.986Z,-11266.81
2023-05-11T08:34:26.702Z,-11272.16
2023-05-11T08:37:32.746Z,-11282.28
2023-05-11T08:40:40.359Z,-11265.13
2023-05-11T08:43:47.601Z,-11272.44
2023-05-11T08:47:08.581Z,-11290.59
2023-05-11T08:50:23.819Z,-11282.56
2023-05-11T08:53:29.835Z,-11287.50
2023-05-11T08:56:37.624Z,-11283.00
2023-05-11T08:59:46.387Z,-11278.78
2023-05-11T09:02:53.707Z,-11256.41
2023-05-11T09:06:02.449Z,-11278.34
2023-05-11T09:09:10.264Z,-11266.53
2023-05-11T09:12:18.036Z,-11266.69
2023-05-11T09:15:24.571Z,-11270.63
2023-05-11T09:18:31.058Z,-11272.88
2023-05-11T09:21:40.091Z,-11289.34
2023-05-11T09:24:46.605Z,-11280.88
2023-05-11T09:27:53.692Z,-11272.44
2023-05-11T09:31:00.443Z,-11292.28
2023-05-11T09:34:11.804Z,-11307.06
2023-05-11T09:37:20.356Z,-11305.09
2023-05-11T09:40:27.596Z,-11304.81
2023-05-11T09:43:33.796Z,-11296.38
2023-05-11T09:46:40.711Z,-11319.47
2023-05-11T09:49:48.178Z,-11317.91
2023-05-11T09:52:56.006Z,-11319.75
2023-05-11T09:56:02.595Z,-11325.09
2023-05-11T09:59:08.828Z,-11317.78
2023-05-11T10:02:24.067Z,-11309.03
2023-05-11T10:05:32.568Z,-11282.28
2023-05-11T10:08:40.689Z,-11298.63
2023-05-11T10:11:48.160Z,-11344.53
2023-05-11T10:14:57.306Z,-11325.66
2023-05-11T10:18:03.688Z,-11336.66
2023-05-11T10:21:10.357Z,-11327.78
2023-05-11T10:24:20.407Z,-11320.31
2023-05-11T10:27:29.175Z,-11330.72
2023-05-11T10:30:37.305Z,-11336.94
2023-05-11T10:33:44.590Z,-11315.25
2023-05-11T10:36:53.370Z,-11342.97
2023-05-11T10:40:01.200Z,-11330.59
2023-05-11T10:43:44.384Z,-11333.84
2023-05-11T10:47:10.831Z,-11327.91
2023-05-11T10:50:37.798Z,-11338.91
2023-05-11T10:53:59.689Z,-11341.00
2023-05-11T10:57:16.883Z,-11340.44
2023-05-11T11:01:14.157Z,-11351.84
2023-05-11T11:04:20.622Z,-11353.81
2023-05-11T11:07:26.725Z,-11367.06
2023-05-11T11:10:34.802Z,-11352.69
2023-05-11T11:14:01.928Z,-11365.38
2023-05-11T11:17:25.119Z,-11378.63
2023-05-11T11:20:50.867Z,-11368.47
2023-05-11T11:23:57.049Z,-11344.97
2023-05-11T11:27:03.224Z,-11352.56
2023-05-11T11:30:19.528Z,-11358.47
2023-05-11T11:33:35.782Z,-11391.88
2023-05-11T11:37:06.453Z,-11336.66
2023-05-11T11:40:15.741Z,-11367.22
2023-05-11T11:43:24.802Z,-11386.38
2023-05-11T11:46:32.179Z,-11370.16
2023-05-11T11:49:39.387Z,-11361.00
2023-05-11T11:52:45.582Z,-11346.78
2023-05-11T11:55:52.771Z,-11339.87
2023-05-11T11:58:59.875Z,-11366.38
2023-05-11T12:02:09.071Z,-11382.72
2023-05-11T12:05:18.956Z,-11387.91
2023-05-11T12:08:27.811Z,-11381.72
2023-05-11T12:11:34.470Z,-11347.63
2023-05-11T12:14:49.006Z,-11371.56
2023-05-11T12:17:57.647Z,-11363.53
2023-05-11T12:21:04.198Z,-11378.06
2023-05-11T12:24:13.269Z,-11380.59
2023-05-11T12:27:19.873Z,-11350.44
2023-05-11T12:30:28.117Z,-11359.59
2023-05-11T12:33:45.797Z,-11376.66
2023-05-11T12:36:53.504Z,-11369.31
2023-05-11T12:40:00.466Z,-11371.72
2023-05-11T12:43:06.954Z,-11388.06
2023-05-11T12:46:13.528Z,-11352.13
2023-05-11T12:52:30.874Z,-11355.78
2023-05-11T12:55:37.297Z,-11362.28
2023-05-11T12:58:43.681Z,-11366.94
2023-05-11T13:01:49.807Z,-11362.84
2023-05-11T13:04:57.230Z,-11347.63
2023-05-11T13:08:04.770Z,-11346.50
2023-05-11T13:11:22.486Z,-11356.94
2023-05-11T13:14:32.473Z,-11344.25
2023-05-11T13:17:39.418Z,-11363.69
2023-05-11T13:20:46.775Z,-11349.88
2023-05-11T13:23:54.520Z,-11339.75
2023-05-11T13:27:00.979Z,-11332.00
2023-05-11T13:30:08.497Z,-11352.69
2023-05-11T13:33:14.572Z,-11352.00
2023-05-11T13:36:23.183Z,-11362.28
2023-05-11T13:39:29.326Z,-11354.94
2023-05-11T13:42:35.437Z,-11342.13
2023-05-11T13:45:41.887Z,-11359.47
2023-05-11T13:48:47.918Z,-11375.81
2023-05-11T13:51:55.671Z,-11356.50
2023-05-11T13:55:01.866Z,-11370.16
2023-05-11T13:58:08.399Z,-11373.13
2023-05-11T14:01:14.526Z,-11372.16
2023-05-11T14:04:20.616Z,-11354.94
2023-05-11T14:07:39.118Z,-11354.38
2023-05-11T14:10:53.191Z,-11367.50
2023-05-11T14:13:59.284Z,-11367.78
2023-05-11T14:17:05.525Z,-11357.50
2023-05-11T14:20:12.813Z,-11370.31
2023-05-11T14:23:20.700Z,-11362.28
2023-05-11T14:26:26.807Z,-11362.97
2023-05-11T14:29:32.829Z,-11375.81
2023-05-11T14:32:38.896Z,-11354.66
2023-05-11T14:35:45.723Z,-11381.72
2023-05-11T14:38:53.494Z,-11372.84
2023-05-11T14:41:59.741Z,-11376.50
2023-05-11T14:45:07.072Z,-11376.78
2023-05-11T14:48:13.334Z,-11364.53
2023-05-11T14:51:21.963Z,-11365.38
2023-05-11T14:54:29.518Z,-11348.06
2023-05-11T14:57:35.789Z,-11370.59
2023-05-11T15:00:42.110Z,-11373.00
2023-05-11T15:03:48.179Z,-11365.94
2023-05-11T15:06:54.173Z,-11344.81
2023-05-11T15:10:02.351Z,-11342.84
2023-05-11T15:13:10.569Z,-11339.19
2023-05-11T15:16:17.078Z,-11341.16
2023-05-11T15:19:23.312Z,-11329.88
2023-05-11T15:22:29.299Z,-11339.47
2023-05-11T15:25:36.960Z,-11325.94
2023-05-11T15:28:43.024Z,-11336.38
2023-05-11T15:31:49.258Z,-11332.97
2023-05-11T15:34:59.684Z,-11334.94
2023-05-11T15:38:06.800Z,-11317.06
2023-05-11T15:41:14.641Z,-11325.38
2023-05-11T15:44:20.890Z,-11318.91
2023-05-11T15:47:27.350Z,-11311.72
2023-05-11T15:50:33.804Z,-11311.00
2023-05-11T15:53:39.706Z,-11308.63
2023-05-11T15:56:47.314Z,-11327.06
2023-05-11T15:59:53.300Z,-11323.25
2023-05-11T16:02:59.251Z,-11318.91
2023-05-11T16:06:06.235Z,-11312.13
2023-05-11T16:09:12.602Z,-11305.38
2023-05-11T16:12:19.897Z,-11303.41
2023-05-11T16:15:26.594Z,-11307.91
2023-05-11T16:18:32.592Z,-11292.56
2023-05-11T16:21:38.820Z,-11293.28
2023-05-11T16:24:45.261Z,-11292.00
2023-05-11T16:27:52.950Z,-11289.47
2023-05-11T16:30:59.529Z,-11285.97
2023-05-11T16:34:05.801Z,-11287.34
2023-05-11T16:37:11.625Z,-11281.88
2023-05-11T16:40:19.733Z,-11260.63
2023-05-11T16:43:27.265Z,-11257.09
2023-05-11T16:46:33.635Z,-11267.53
2023-05-11T16:49:40.059Z,-11280.31
2023-05-11T16:52:46.073Z,-11283.69
2023-05-11T16:55:52.222Z,-11264.44
2023-05-11T16:58:59.668Z,-11274.41
2023-05-11T17:02:07.561Z,-11266.69
2023-05-11T17:05:14.519Z,-11262.44
2023-05-11T17:08:20.798Z,-11265.00
2023-05-11T17:11:27.051Z,-11251.91
2023-05-11T17:14:34.324Z,-11258.66
2023-05-11T17:17:41.345Z,-11270.34
2023-05-11T17:20:53.437Z,-11256.13
2023-05-11T17:23:59.770Z,-11265.97
2023-05-11T17:27:06.280Z,-11249.09
2023-05-11T17:30:14.495Z,-11254.00
2023-05-11T17:33:21.032Z,-11256.97
2023-05-11T17:36:29.461Z,-11265.41
2023-05-11T17:39:35.838Z,-11256.69
2023-05-11T17:42:42.184Z,-11264.84
2023-05-11T17:45:50.282Z,-11259.22
2023-05-11T17:48:56.848Z,-11247.41
2023-05-11T17:52:03.472Z,-11250.50
2023-05-11T17:55:11.111Z,-11250.50
2023-05-11T17:58:17.353Z,-11259.22
2023-05-11T18:01:25.418Z,-11252.75
2023-05-11T18:04:31.845Z,-11247.41
2023-05-11T18:07:37.908Z,-11251.06
2023-05-11T18:10:44.471Z,-11236.72
2023-05-11T18:13:51.137Z,-11242.19
2023-05-11T18:16:58.669Z,-11241.19
2023-05-11T18:20:06.401Z,-11232.34
2023-05-11T18:23:12.697Z,-11234.47
2023-05-11T18:26:20.244Z,-11238.94
2023-05-11T18:29:27.121Z,-11233.19
2023-05-11T18:32:34.891Z,-11234.88
2023-05-11T18:35:42.299Z,-11236.56
2023-05-11T18:38:49.423Z,-11240.91
2023-05-11T18:41:56.019Z,-11238.94
2023-05-11T18:45:02.254Z,-11230.66
2023-05-11T18:48:10.017Z,-11231.63
2023-05-11T18:51:19.008Z,-11241.47
2023-05-11T18:54:25.566Z,-11239.22
2023-05-11T18:57:34.158Z,-11237.56
2023-05-11T19:00:40.671Z,-11233.47
2023-05-11T19:03:48.209Z,-11240.06
2023-05-11T19:06:54.588Z,-11234.75
2023-05-11T19:10:00.880Z,-11235.59
2023-05-11T19:13:07.021Z,-11236.72
2023-05-11T19:16:13.026Z,-11230.78
2023-05-11T19:19:20.590Z,-11231.91
2023-05-11T19:22:26.838Z,-11240.91
2023-05-11T19:25:33.092Z,-11236.00
2023-05-11T19:28:39.430Z,-11237.00
2023-05-11T19:31:46.063Z,-11240.91
2023-05-11T19:34:54.053Z,-11231.22
2023-05-11T19:38:00.280Z,-11242.59
2023-05-11T19:41:06.975Z,-11239.50
2023-05-11T19:44:13.418Z,-11231.34
2023-05-11T19:47:19.545Z,-11224.59
2023-05-11T19:50:27.804Z,-11233.03
2023-05-11T19:53:34.397Z,-11229.94
2023-05-11T19:56:40.553Z,-11232.75
2023-05-11T19:59:46.717Z,-11237.28
2023-05-11T20:02:52.965Z,-11240.34
2023-05-11T20:06:00.389Z,-11228.41
2023-05-11T20:09:07.336Z,-11220.53
2023-05-11T20:12:13.131Z,-11226.84
2023-05-11T20:15:19.836Z,-11230.66
2023-05-11T20:18:28.225Z,-11235.44
2023-05-11T20:21:36.452Z,-11235.59
2023-05-11T20:24:42.320Z,-11225.88
2023-05-11T20:27:48.309Z,-11219.97
2023-05-11T20:30:54.357Z,-11221.50
2023-05-11T20:37:11.242Z,-11224.59
2023-05-11T20:40:18.661Z,-11222.91
2023-05-11T20:43:26.142Z,-11223.91
2023-05-11T20:46:32.524Z,-11219.53
2023-05-11T20:49:39.518Z,-11226.56
2023-05-11T20:52:47.178Z,-11221.50
2023-05-11T20:55:53.320Z,-11209.84
2023-05-11T20:58:59.601Z,-11214.34
2023-05-11T21:02:06.501Z,-11215.03
2023-05-11T21:05:13.002Z,-11223.75
2023-05-11T21:08:20.682Z,-11215.59
2023-05-11T21:11:27.444Z,-11216.59
2023-05-11T21:14:33.906Z,-11203.50
2023-05-11T21:17:40.154Z,-11204.91
2023-05-11T21:20:46.212Z,-11200.13
2023-05-11T21:23:53.647Z,-11218.97
2023-05-11T21:26:59.947Z,-11215.88
2023-05-11T21:30:07.008Z,-11220.09
2023-05-11T21:33:13.396Z,-11221.38
2023-05-11T21:36:19.586Z,-11218.69
2023-05-11T21:39:26.987Z,-11209.00
2023-05-11T21:42:36.173Z,-11207.72
2023-05-11T21:45:42.574Z,-11208.84
2023-05-11T21:48:48.820Z,-11209.97
2023-05-11T21:51:54.943Z,-11207.44
2023-05-11T21:55:02.503Z,-11214.06
2023-05-11T21:58:09.073Z,-11204.50
2023-05-11T22:01:15.210Z,-11210.13
2023-05-11T22:04:21.851Z,-11207.59
2023-05-11T22:07:28.056Z,-11204.91
2023-05-11T22:10:35.794Z,-11215.03
2023-05-11T22:13:44.808Z,-11205.19
2023-05-11T22:16:51.259Z,-11204.78
2023-05-11T22:19:57.582Z,-11210.13
2023-05-11T22:23:04.650Z,-11199.72
2023-05-11T22:26:12.496Z,-11201.53
2023-05-11T22:29:19.089Z,-11214.47
2023-05-11T22:32:25.459Z,-11210.13
2023-05-11T22:35:31.357Z,-11212.50
2023-05-11T22:38:38.280Z,-11206.88
2023-05-11T22:41:46.233Z,-11201.41
2023-05-11T22:44:52.476Z,-11204.06
2023-05-11T22:47:58.761Z,-11206.31
2023-05-11T22:51:06.483Z,-11208.56
2023-05-11T22:54:13.387Z,-11204.34
2023-05-11T22:57:20.865Z,-11201.81
2023-05-11T23:00:27.570Z,-11196.63
2023-05-11T23:03:33.788Z,-11204.34
2023-05-11T23:06:39.815Z,-11206.47
2023-05-11T23:09:46.107Z,-11208.84
2023-05-11T23:12:53.563Z,-11202.53
2023-05-11T23:15:59.730Z,-11212.38
2023-05-11T23:19:05.898Z,-11215.47
2023-05-11T23:22:12.033Z,-11197.03
2023-05-11T23:25:18.529Z,-11205.47
2023-05-11T23:28:26.390Z,-11209.41
2023-05-11T23:31:32.787Z,-11205.47
2023-05-11T23:34:39.391Z,-11203.78
2023-05-11T23:37:45.374Z,-11208.28
2023-05-11T23:40:52.552Z,-11212.09
2023-05-11T23:44:00.678Z,-11199.00
2023-05-11T23:47:07.185Z,-11207.16
2023-05-11T23:50:14.152Z,-11203.22
2023-05-11T23:53:20.337Z,-11194.22
2023-05-11T23:56:26.494Z,-11190.56
2023-05-11T23:59:33.816Z,-11203.50
